Decoded Metar for KMIW (MARSHALLTOWN in IA, USA) (IATA:MIW) | Meteo·Mobile Aviation Weather
aviador You're here:

KMIW Decoded Metar

MARSHALLTOWN in IA, USA
Report Time2018-09-20 06:21:00
UTC Time2018-09-20 06:29:34
Flight Rules mvfr MVFR
Wind020° at 11 kt
W.Decomp.*RWY 36: 10.4 kt HW 3.6 kt RCW
RWY 31: 3.9 kt HW 10.3 kt RCW
W.Rank020° ranks 32
Current wind is above 020° avg. (8.2)
Visibility9999 m
Phenomena:N/A
Clouds:Broken 011 Hf
Broken 021 Hf
Overcast 031 Hf
Ceiling1,100 ft
Temp20°C (ISA +7)
Dew Point20°C (100% RH)
AAT19.7°C
QNH1014 hPa
Density Alt2,060 ft
Elevation971 ft
Report Wrong Elevation
Raw Report
KMIW 200621Z AUTO 02011KT 10SM BKN011 BKN021 OVC031 20/20 A2994
RMK AO2 RAE13 P0010 T02000200=

Extra information for KMIW:More info

Metar Taf Metar & Taf Last 4 Metars F.Rules Stats Wind Profile Meteogram Temp Stats Airport Information Weather charts Add Link Nearby VenuesMetar ALERT Operation Metar Decoded Social comments

AIRNAV info for KMIW